createdAt,value
2022-11-27T00:01:34.229Z,15.00
2022-11-27T00:06:32.026Z,15.00
2022-11-27T00:09:02.998Z,17.00
2022-11-27T00:11:32.449Z,15.00
2022-11-27T00:16:29.333Z,14.00
2022-11-27T00:21:28.584Z,12.00
2022-11-27T00:23:58.646Z,14.00
2022-11-27T00:26:30.036Z,12.00
2022-11-27T00:29:02.317Z,12.00
2022-11-27T00:31:32.561Z,12.00
2022-11-27T00:34:03.232Z,13.50
2022-11-27T00:36:33.278Z,11.00
2022-11-27T00:39:01.817Z,13.50
2022-11-27T00:41:31.193Z,15.00
2022-11-27T00:49:03.273Z,12.00
2022-11-27T00:51:31.527Z,15.00
2022-11-27T00:53:59.661Z,13.00
2022-11-27T00:56:30.549Z,16.00
2022-11-27T01:01:32.582Z,12.00
2022-11-27T01:04:02.401Z,13.00
2022-11-27T01:06:30.899Z,16.00
2022-11-27T01:11:30.606Z,15.00
2022-11-27T01:16:30.565Z,17.00
2022-11-27T01:19:00.826Z,15.00
2022-11-27T01:21:32.374Z,12.50
2022-11-27T01:24:01.392Z,15.00
2022-11-27T01:26:29.873Z,15.00
2022-11-27T01:28:58.771Z,14.00
2022-11-27T01:31:29.702Z,17.00
2022-11-27T01:34:00.745Z,15.00
2022-11-27T01:36:29.523Z,17.00
2022-11-27T01:38:57.496Z,19.00
2022-11-27T01:41:35.616Z,18.00
2022-11-27T01:47:02.425Z,13.00
2022-11-27T01:49:36.428Z,14.50
2022-11-27T01:52:04.326Z,14.00
2022-11-27T01:54:42.204Z,16.00
2022-11-27T01:57:18.326Z,14.00
2022-11-27T02:04:44.174Z,16.00
2022-11-27T02:07:12.219Z,18.00
2022-11-27T02:12:25.041Z,18.00
2022-11-27T02:15:09.519Z,15.00
2022-11-27T02:17:49.072Z,18.00
2022-11-27T02:20:26.110Z,15.00
2022-11-27T02:26:19.032Z,15.00
2022-11-27T02:28:58.696Z,15.00
2022-11-27T02:34:22.651Z,20.00
2022-11-27T02:37:01.026Z,23.00
2022-11-27T02:39:37.650Z,20.00
2022-11-27T02:42:18.456Z,17.00
2022-11-27T02:45:12.280Z,18.50
2022-11-27T02:50:19.475Z,21.00
2022-11-27T02:52:49.331Z,14.50
2022-11-27T02:55:22.330Z,17.00
2022-11-27T02:57:54.648Z,17.00
2022-11-27T03:00:22.681Z,19.00
2022-11-27T03:05:24.408Z,17.00
2022-11-27T03:07:59.677Z,14.00
2022-11-27T03:10:36.778Z,15.50
2022-11-27T03:13:04.812Z,14.00
2022-11-27T03:16:02.905Z,15.00
2022-11-27T03:18:51.863Z,17.00
2022-11-27T03:21:41.210Z,17.00
2022-11-27T03:24:10.767Z,15.00
2022-11-27T03:26:39.508Z,15.50
2022-11-27T03:29:15.241Z,15.00
2022-11-27T03:31:44.377Z,14.00
2022-11-27T03:34:12.769Z,18.00
2022-11-27T03:36:40.598Z,12.50
2022-11-27T03:39:09.284Z,17.00
2022-11-27T03:41:57.827Z,15.00
2022-11-27T03:44:31.839Z,16.50
2022-11-27T03:47:37.795Z,15.50
2022-11-27T03:50:37.274Z,15.00
2022-11-27T03:53:19.540Z,15.00
2022-11-27T03:55:55.409Z,12.00
2022-11-27T04:00:52.909Z,17.00
2022-11-27T04:03:29.018Z,17.00
2022-11-27T04:08:25.411Z,15.00
2022-11-27T04:10:53.291Z,14.50
2022-11-27T04:13:21.212Z,15.00
2022-11-27T04:15:49.348Z,18.00
2022-11-27T04:18:17.832Z,14.50
2022-11-27T04:20:45.703Z,14.00
2022-11-27T04:23:13.511Z,17.00
2022-11-27T04:25:41.365Z,15.00
2022-11-27T04:28:09.329Z,14.00
2022-11-27T04:30:37.231Z,13.00
2022-11-27T04:33:05.137Z,18.00
2022-11-27T04:35:33.009Z,16.00
2022-11-27T04:38:00.874Z,11.50
2022-11-27T04:42:56.639Z,14.00
2022-11-27T04:47:52.226Z,13.50
2022-11-27T04:50:20.086Z,8.00
2022-11-27T04:52:47.895Z,13.00
2022-11-27T04:55:15.991Z,14.00
2022-11-27T04:57:43.877Z,13.50
2022-11-27T05:00:12.443Z,12.00
2022-11-27T05:02:40.564Z,13.00
2022-11-27T05:05:09.309Z,10.00
2022-11-27T05:07:37.516Z,13.00
2022-11-27T05:10:06.493Z,14.00
2022-11-27T05:17:32.752Z,15.00
2022-11-27T05:22:28.707Z,12.00
2022-11-27T05:24:56.606Z,13.50
2022-11-27T05:27:24.521Z,14.00
2022-11-27T05:29:52.319Z,13.00
2022-11-27T05:32:20.544Z,19.00
2022-11-27T05:34:49.869Z,28.00
2022-11-27T05:37:19.642Z,31.00
2022-11-27T05:42:15.831Z,25.00
2022-11-27T05:44:43.882Z,25.00
2022-11-27T05:47:11.728Z,16.00
2022-11-27T05:52:07.536Z,20.00
2022-11-27T05:54:35.821Z,17.00
2022-11-27T05:59:31.406Z,21.00
2022-11-27T06:01:59.484Z,15.00
2022-11-27T06:04:27.444Z,17.00
2022-11-27T06:06:55.303Z,21.00
2022-11-27T06:09:23.210Z,14.00
2022-11-27T06:11:51.078Z,14.00
2022-11-27T06:16:46.754Z,18.00
2022-11-27T06:19:14.691Z,13.00
2022-11-27T06:26:39.070Z,17.00
2022-11-27T06:29:07.101Z,21.00
2022-11-27T06:36:37.374Z,25.00
2022-11-27T06:41:34.309Z,31.00
2022-11-27T06:46:30.535Z,28.00
2022-11-27T06:48:59.588Z,26.00
2022-11-27T06:51:30.222Z,18.00
2022-11-27T06:54:00.654Z,20.00
2022-11-27T06:59:00.249Z,20.00
2022-11-27T07:01:30.313Z,22.00
2022-11-27T07:03:59.115Z,26.00
2022-11-27T07:06:28.038Z,28.00
2022-11-27T07:08:56.389Z,32.00
2022-11-27T07:11:26.758Z,37.00
2022-11-27T07:16:24.294Z,27.00
2022-11-27T07:21:22.073Z,27.00
2022-11-27T07:23:50.197Z,30.00
2022-11-27T07:26:23.884Z,29.00
2022-11-27T07:28:51.975Z,28.00
2022-11-27T07:31:23.415Z,27.00
2022-11-27T07:36:23.631Z,17.00
2022-11-27T07:38:52.574Z,29.00
2022-11-27T07:41:20.900Z,29.00
2022-11-27T07:53:47.150Z,29.00
2022-11-27T07:56:16.026Z,32.00
2022-11-27T08:01:18.072Z,26.00
2022-11-27T08:08:46.707Z,27.00
2022-11-27T08:11:16.710Z,26.00
2022-11-27T08:16:12.702Z,20.00
2022-11-27T08:18:40.855Z,21.00
2022-11-27T08:21:09.083Z,23.00
2022-11-27T08:23:37.126Z,3.00
2022-11-27T08:26:09.527Z,11.00
2022-11-27T08:31:08.439Z,24.00
2022-11-27T08:36:08.099Z,24.00
2022-11-27T08:38:37.066Z,23.00
2022-11-27T08:41:06.633Z,25.00
2022-11-27T08:43:35.154Z,20.00
2022-11-27T08:46:05.702Z,19.00
2022-11-27T08:48:33.828Z,27.50
2022-11-27T08:51:07.354Z,27.00
2022-11-27T08:53:37.748Z,19.00
2022-11-27T08:56:12.150Z,19.00
2022-11-27T09:01:30.769Z,22.00
2022-11-27T09:03:59.591Z,15.00
2022-11-27T09:06:30.386Z,23.00
2022-11-27T09:09:00.200Z,16.00
2022-11-27T09:11:31.300Z,15.00
2022-11-27T09:14:03.661Z,15.00
2022-11-27T09:16:32.121Z,15.00
2022-11-27T09:19:00.057Z,10.00
2022-11-27T09:21:32.710Z,14.00
2022-11-27T09:24:02.062Z,14.50
2022-11-27T09:26:30.367Z,14.00
2022-11-27T09:29:00.691Z,14.00
2022-11-27T09:31:28.890Z,12.00
2022-11-27T09:33:58.529Z,15.00
2022-11-27T09:36:42.997Z,16.50
2022-11-27T09:39:39.691Z,15.00
2022-11-27T09:42:39.839Z,19.00
2022-11-27T09:45:15.568Z,18.50
2022-11-27T09:47:55.672Z,21.00
2022-11-27T09:50:31.494Z,14.00
2022-11-27T09:53:18.280Z,12.50
2022-11-27T09:55:49.716Z,13.00
2022-11-27T09:58:20.863Z,9.00
2022-11-27T10:03:24.362Z,13.00
2022-11-27T10:06:24.121Z,11.00
2022-11-27T10:12:06.546Z,13.00
2022-11-27T10:20:08.149Z,10.00
2022-11-27T10:23:14.066Z,14.00
2022-11-27T10:25:58.910Z,10.00
2022-11-27T10:31:43.761Z,11.00
2022-11-27T10:34:31.628Z,11.50
2022-11-27T10:37:05.911Z,12.00
2022-11-27T10:39:41.517Z,11.00
2022-11-27T10:42:21.052Z,13.00
2022-11-27T10:45:00.758Z,15.00
2022-11-27T10:47:33.535Z,11.00
2022-11-27T10:50:02.157Z,14.50
2022-11-27T10:52:30.378Z,12.00
2022-11-27T10:55:04.859Z,13.00
2022-11-27T11:00:23.328Z,17.00
2022-11-27T11:03:05.502Z,12.00
2022-11-27T11:05:57.290Z,16.00
2022-11-27T11:16:06.158Z,16.00
2022-11-27T11:18:42.942Z,15.50
2022-11-27T11:21:18.917Z,14.00
2022-11-27T11:24:13.009Z,19.00
2022-11-27T11:26:46.755Z,17.00
2022-11-27T11:29:30.433Z,17.00
2022-11-27T11:32:06.815Z,16.00
2022-11-27T11:34:36.031Z,20.00
2022-11-27T11:37:08.478Z,16.00
2022-11-27T11:42:22.034Z,16.00
2022-11-27T11:44:52.967Z,14.00
2022-11-27T11:47:24.991Z,14.00
2022-11-27T11:49:54.713Z,11.00
2022-11-27T11:52:31.896Z,10.00
2022-11-27T12:00:17.125Z,11.00
2022-11-27T12:02:57.253Z,11.00
2022-11-27T12:13:39.089Z,6.00
2022-11-27T12:19:16.018Z,13.00
2022-11-27T12:22:02.443Z,12.00
2022-11-27T12:24:50.286Z,9.50
2022-11-27T12:27:38.622Z,13.00
2022-11-27T12:32:43.093Z,8.00
2022-11-27T12:35:32.509Z,10.00
2022-11-27T12:38:16.978Z,9.50
2022-11-27T12:41:16.372Z,9.00
2022-11-27T12:43:50.885Z,8.00
2022-11-27T12:48:59.725Z,7.00
2022-11-27T12:51:44.400Z,8.00
2022-11-27T12:54:25.836Z,7.00
2022-11-27T12:56:58.668Z,7.00
2022-11-27T12:59:46.159Z,8.00
2022-11-27T13:05:15.273Z,5.50
2022-11-27T13:07:59.221Z,8.00
2022-11-27T13:10:34.115Z,6.50
2022-11-27T13:13:13.702Z,10.50
2022-11-27T13:18:34.081Z,7.00
2022-11-27T13:21:06.000Z,7.00
2022-11-27T13:23:35.257Z,7.00
2022-11-27T13:26:23.316Z,7.00
2022-11-27T13:28:59.586Z,7.00
2022-11-27T13:31:33.287Z,11.00
2022-11-27T13:34:19.671Z,9.00
2022-11-27T13:36:57.547Z,11.00
2022-11-27T13:39:41.013Z,9.00
2022-11-27T13:42:11.971Z,9.50
2022-11-27T13:47:15.413Z,9.00
2022-11-27T13:49:43.692Z,10.00
2022-11-27T13:52:21.327Z,10.00
2022-11-27T13:57:38.644Z,11.50
2022-11-27T14:00:10.915Z,11.00
2022-11-27T14:05:20.089Z,12.00
2022-11-27T14:07:54.871Z,8.00
2022-11-27T14:10:27.057Z,8.50
2022-11-27T14:13:05.438Z,14.00
2022-11-27T14:15:36.355Z,10.00
2022-11-27T14:18:09.603Z,11.50
2022-11-27T14:20:58.227Z,11.00
2022-11-27T14:23:48.294Z,10.00
2022-11-27T14:28:48.606Z,10.00
2022-11-27T14:31:30.104Z,8.00
2022-11-27T14:39:33.281Z,8.00
2022-11-27T14:42:08.106Z,12.00
2022-11-27T14:44:36.193Z,14.50
2022-11-27T14:47:06.860Z,15.50
2022-11-27T14:49:35.109Z,17.50
2022-11-27T14:52:07.589Z,19.00
2022-11-27T14:54:41.333Z,16.00
2022-11-27T14:59:43.258Z,19.00
2022-11-27T15:02:11.444Z,11.00
2022-11-27T15:07:20.441Z,17.00
2022-11-27T15:09:55.770Z,22.00
2022-11-27T15:12:26.979Z,18.50
2022-11-27T15:15:10.591Z,16.00
2022-11-27T15:20:25.180Z,19.00
2022-11-27T15:22:57.102Z,17.00
2022-11-27T15:27:57.790Z,19.00
2022-11-27T15:30:25.796Z,18.00
2022-11-27T15:32:55.555Z,16.00
2022-11-27T15:35:36.473Z,15.00
2022-11-27T15:38:11.436Z,12.00
2022-11-27T15:40:41.302Z,12.00
2022-11-27T15:43:15.096Z,16.00
2022-11-27T15:45:44.603Z,15.00
2022-11-27T15:48:18.066Z,10.00
2022-11-27T15:50:51.478Z,12.00
2022-11-27T15:55:47.953Z,10.00
2022-11-27T16:00:43.899Z,10.50
2022-11-27T16:03:13.331Z,10.00
2022-11-27T16:10:42.799Z,11.00
2022-11-27T16:13:10.755Z,6.00
2022-11-27T16:15:38.900Z,12.00
2022-11-27T16:18:07.422Z,11.00
2022-11-27T16:20:35.396Z,15.00
2022-11-27T16:23:03.481Z,12.00
2022-11-27T16:25:31.450Z,16.00
2022-11-27T16:30:32.215Z,16.00
2022-11-27T16:33:00.235Z,19.00
2022-11-27T16:35:28.476Z,19.00
2022-11-27T16:37:56.605Z,21.50
2022-11-27T16:40:24.738Z,21.00
2022-11-27T16:42:52.721Z,20.00
2022-11-27T16:45:20.886Z,19.00
2022-11-27T16:47:49.646Z,15.00
2022-11-27T16:50:26.580Z,22.00
2022-11-27T16:55:26.430Z,19.00
2022-11-27T16:57:55.054Z,21.00
2022-11-27T17:00:23.719Z,21.00
2022-11-27T17:02:52.108Z,19.00
2022-11-27T17:05:20.179Z,20.00
2022-11-27T17:07:48.600Z,16.00
2022-11-27T17:10:16.732Z,18.00
2022-11-27T17:12:44.689Z,21.50
2022-11-27T17:15:13.309Z,22.00
2022-11-27T17:17:42.748Z,20.00
2022-11-27T17:22:38.981Z,19.00
2022-11-27T17:27:38.996Z,19.00
2022-11-27T17:30:08.077Z,22.00
2022-11-27T17:32:37.141Z,19.00
2022-11-27T17:35:06.494Z,19.00
2022-11-27T17:37:34.561Z,17.00
2022-11-27T17:42:31.142Z,15.00
2022-11-27T17:44:59.202Z,15.00
2022-11-27T17:49:55.152Z,17.50
2022-11-27T17:52:23.116Z,21.00
2022-11-27T17:54:51.004Z,15.00
2022-11-27T17:57:19.190Z,15.00
2022-11-27T18:02:15.204Z,18.00
2022-11-27T18:04:43.404Z,18.00
2022-11-27T18:09:40.294Z,14.50
2022-11-27T18:12:08.894Z,14.50
2022-11-27T18:14:37.236Z,15.00
2022-11-27T18:19:35.232Z,18.00
2022-11-27T18:22:03.421Z,19.00
2022-11-27T18:24:31.372Z,21.00
2022-11-27T18:27:08.088Z,21.00
2022-11-27T18:29:43.084Z,21.50
2022-11-27T18:32:13.123Z,26.50
2022-11-27T18:34:42.541Z,25.00
2022-11-27T18:37:11.535Z,26.00
2022-11-27T18:44:44.454Z,14.00
2022-11-27T18:49:44.545Z,22.00
2022-11-27T18:52:14.004Z,19.50
2022-11-27T18:57:11.346Z,24.00
2022-11-27T19:04:37.810Z,21.00
2022-11-27T19:14:31.200Z,28.00
2022-11-27T19:16:59.489Z,27.00
2022-11-27T19:22:17.188Z,21.00
2022-11-27T19:27:13.916Z,25.00
2022-11-27T19:29:42.160Z,30.00
2022-11-27T19:32:10.841Z,0.00
2022-11-27T19:34:39.444Z,31.00
2022-11-27T19:37:08.761Z,27.00
2022-11-27T19:39:36.793Z,31.00
2022-11-27T19:49:32.393Z,29.00
2022-11-27T19:52:00.393Z,29.00
2022-11-27T19:54:29.382Z,29.00
2022-11-27T19:56:57.980Z,27.00
2022-11-27T19:59:26.884Z,30.00
2022-11-27T20:06:55.385Z,26.00
2022-11-27T20:09:24.643Z,26.00
2022-11-27T20:11:52.782Z,29.00
2022-11-27T20:14:20.798Z,26.00
2022-11-27T20:16:48.943Z,29.00
2022-11-27T20:21:46.033Z,26.00
2022-11-27T20:31:42.195Z,28.00
2022-11-27T20:34:18.452Z,26.00
2022-11-27T20:36:47.061Z,22.00
2022-11-27T20:39:20.807Z,24.00
2022-11-27T20:44:18.579Z,25.00
2022-11-27T20:46:47.165Z,24.00
2022-11-27T20:56:43.262Z,25.00
2022-11-27T20:59:12.608Z,26.00
2022-11-27T21:01:41.563Z,28.00
2022-11-27T21:04:19.949Z,20.00
2022-11-27T21:06:48.208Z,25.00
2022-11-27T21:09:17.460Z,19.50
2022-11-27T21:11:46.268Z,23.00
2022-11-27T21:16:48.300Z,22.00
2022-11-27T21:19:19.715Z,8.00
2022-11-27T21:24:16.047Z,24.00
2022-11-27T21:26:44.464Z,22.00
2022-11-27T21:31:46.128Z,23.00
2022-11-27T21:36:43.692Z,22.00
2022-11-27T21:39:13.565Z,27.00
2022-11-27T21:41:41.998Z,20.00
2022-11-27T21:44:13.321Z,25.00
2022-11-27T21:46:41.240Z,23.00
2022-11-27T21:49:12.404Z,27.00
2022-11-27T21:51:40.920Z,31.00
2022-11-27T21:56:40.340Z,34.50
2022-11-27T21:59:12.611Z,31.00
2022-11-27T22:01:40.918Z,30.00
2022-11-27T22:04:08.851Z,29.00
2022-11-27T22:06:38.932Z,28.00
2022-11-27T22:11:45.208Z,30.00
2022-11-27T22:14:15.660Z,31.00
2022-11-27T22:16:46.892Z,34.00
2022-11-27T22:19:16.387Z,30.00
2022-11-27T22:21:45.185Z,31.00
2022-11-27T22:24:19.054Z,31.00
2022-11-27T22:26:49.789Z,27.00
2022-11-27T22:29:18.571Z,30.00
2022-11-27T22:31:46.423Z,31.00
2022-11-27T22:34:16.378Z,28.00
2022-11-27T22:36:45.029Z,30.00
2022-11-27T22:39:13.337Z,31.50
2022-11-27T22:44:18.393Z,30.50
2022-11-27T22:49:17.869Z,26.00
2022-11-27T22:54:17.197Z,23.00
2022-11-27T22:56:46.640Z,29.00
2022-11-27T23:02:05.917Z,27.00
2022-11-27T23:04:34.933Z,27.00
2022-11-27T23:07:04.901Z,15.00
2022-11-27T23:09:33.593Z,30.00
2022-11-27T23:14:32.721Z,29.00
2022-11-27T23:17:00.744Z,29.50
2022-11-27T23:19:28.572Z,30.50
2022-11-27T23:21:56.475Z,28.00
2022-11-27T23:26:52.642Z,29.00
2022-11-27T23:29:20.487Z,30.00
2022-11-27T23:31:48.604Z,27.00
2022-11-27T23:36:44.744Z,27.00
2022-11-27T23:41:41.913Z,27.00
2022-11-27T23:44:09.829Z,29.00
2022-11-27T23:46:37.761Z,26.00
2022-11-27T23:49:05.598Z,31.00
2022-11-27T23:51:33.852Z,29.50
2022-11-27T23:54:05.702Z,28.00
2022-11-27T23:56:33.855Z,27.00
